createdAt,value
2023-05-12T00:01:17.058Z,8.48
2023-05-12T00:03:43.979Z,8.18
2023-05-12T00:06:11.354Z,9.60
2023-05-12T00:08:38.355Z,8.40
2023-05-12T00:11:04.878Z,9.38
2023-05-12T00:13:31.409Z,7.82
2023-05-12T00:15:59.176Z,7.88
2023-05-12T00:18:28.226Z,8.20
2023-05-12T00:20:55.198Z,18.80
2023-05-12T00:23:22.719Z,8.38
2023-05-12T00:25:49.708Z,6.82
2023-05-12T00:28:17.814Z,7.82
2023-05-12T00:30:44.527Z,8.73
2023-05-12T00:33:11.119Z,8.90
2023-05-12T00:35:37.546Z,8.82
2023-05-12T00:38:04.077Z,7.70
2023-05-12T00:40:30.593Z,6.90
2023-05-12T00:42:57.041Z,7.15
2023-05-12T00:45:23.833Z,8.30
2023-05-12T00:47:52.219Z,9.82
2023-05-12T00:50:19.089Z,7.45
2023-05-12T00:52:46.942Z,8.00
2023-05-12T00:55:13.464Z,9.98
2023-05-12T00:57:41.152Z,6.37
2023-05-12T01:00:08.827Z,6.70
2023-05-12T01:02:36.530Z,7.70
2023-05-12T01:05:03.819Z,7.75
2023-05-12T01:07:32.813Z,8.13
2023-05-12T01:09:59.409Z,6.23
2023-05-12T01:12:26.728Z,7.68
2023-05-12T01:14:54.908Z,8.82
2023-05-12T01:17:28.052Z,6.80
2023-05-12T01:19:57.478Z,6.00
2023-05-12T01:22:26.004Z,7.70
2023-05-12T01:24:57.963Z,8.27
2023-05-12T01:27:26.264Z,8.82
2023-05-12T01:29:54.770Z,6.50
2023-05-12T01:32:22.245Z,7.15
2023-05-12T01:34:49.716Z,6.60
2023-05-12T01:37:16.274Z,9.50
2023-05-12T01:39:42.827Z,7.00
2023-05-12T01:42:09.382Z,6.53
2023-05-12T01:44:36.149Z,7.68
2023-05-12T01:47:02.777Z,6.83
2023-05-12T01:49:29.300Z,7.50
2023-05-12T01:51:55.834Z,7.75
2023-05-12T01:54:22.304Z,5.68
2023-05-12T01:56:48.724Z,6.25
2023-05-12T01:59:15.392Z,5.57
2023-05-12T02:01:41.927Z,7.68
2023-05-12T02:04:08.950Z,5.50
2023-05-12T02:06:35.683Z,5.82
2023-05-12T02:09:02.151Z,8.10
2023-05-12T02:11:29.068Z,4.73
2023-05-12T02:13:56.210Z,5.82
2023-05-12T02:16:22.701Z,5.38
2023-05-12T02:18:49.245Z,4.55
2023-05-12T02:21:15.939Z,5.03
2023-05-12T02:23:42.408Z,5.33
2023-05-12T02:26:08.845Z,4.88
2023-05-12T02:28:35.367Z,5.72
2023-05-12T02:31:01.972Z,6.80
2023-05-12T02:33:28.446Z,4.82
2023-05-12T02:35:54.877Z,5.80
2023-05-12T02:38:21.422Z,6.50
2023-05-12T02:40:48.131Z,7.28
2023-05-12T02:43:14.620Z,5.78
2023-05-12T02:45:41.634Z,7.13
2023-05-12T02:48:08.300Z,5.13
2023-05-12T02:50:34.762Z,6.38
2023-05-12T02:53:01.260Z,9.02
2023-05-12T02:55:29.882Z,5.75
2023-05-12T02:57:56.857Z,8.68
2023-05-12T03:00:23.481Z,7.13
2023-05-12T03:02:50.204Z,7.72
2023-05-12T03:05:16.990Z,7.78
2023-05-12T03:07:43.631Z,8.68
2023-05-12T03:10:10.560Z,10.27
2023-05-12T03:12:37.150Z,10.10
2023-05-12T03:15:04.676Z,7.10
2023-05-12T03:17:31.133Z,10.85
2023-05-12T03:19:57.611Z,10.48
2023-05-12T03:22:24.164Z,9.43
2023-05-12T03:24:50.646Z,11.83
2023-05-12T03:27:17.178Z,12.43
2023-05-12T03:29:43.611Z,12.70
2023-05-12T03:32:10.053Z,13.15
2023-05-12T03:34:36.518Z,12.32
2023-05-12T03:37:02.957Z,12.70
2023-05-12T03:39:29.383Z,15.13
2023-05-12T03:41:55.824Z,15.45
2023-05-12T03:44:22.337Z,13.32
2023-05-12T03:46:48.881Z,15.10
2023-05-12T03:49:15.353Z,16.87
2023-05-12T03:51:41.786Z,20.17
2023-05-12T03:54:08.290Z,19.85
2023-05-12T03:56:34.726Z,16.58
2023-05-12T03:59:01.127Z,20.27
2023-05-12T04:01:27.699Z,19.37
2023-05-12T04:03:54.282Z,19.75
2023-05-12T04:06:20.854Z,21.00
2023-05-12T04:08:47.347Z,23.00
2023-05-12T04:11:14.108Z,21.50
2023-05-12T04:13:40.548Z,22.00
2023-05-12T04:16:07.115Z,22.73
2023-05-12T04:18:33.616Z,20.20
2023-05-12T04:21:00.049Z,22.40
2023-05-12T04:23:26.479Z,23.30
2023-05-12T04:25:52.939Z,26.27
2023-05-12T04:28:19.355Z,21.90
2023-05-12T04:30:45.796Z,24.67
2023-05-12T04:33:12.370Z,20.92
2023-05-12T04:35:38.854Z,23.70
2023-05-12T04:38:05.374Z,27.10
2023-05-12T04:40:34.720Z,27.60
2023-05-12T04:43:01.591Z,26.20
2023-05-12T04:45:28.184Z,29.17
2023-05-12T04:47:54.594Z,26.73
2023-05-12T04:50:21.276Z,25.00
2023-05-12T04:52:47.900Z,27.73
2023-05-12T04:55:14.399Z,27.10
2023-05-12T04:57:41.545Z,25.63
2023-05-12T05:00:09.092Z,30.80
2023-05-12T05:02:35.956Z,25.63
2023-05-12T05:05:02.855Z,31.75
2023-05-12T05:07:29.420Z,31.25
2023-05-12T05:09:55.915Z,29.55
2023-05-12T05:12:22.367Z,26.45
2023-05-12T05:14:48.953Z,31.47
2023-05-12T05:17:15.462Z,28.95
2023-05-12T05:19:55.136Z,31.80
2023-05-12T05:22:24.677Z,30.08
2023-05-12T05:24:51.989Z,29.45
2023-05-12T05:27:18.842Z,29.37
2023-05-12T05:29:45.392Z,38.47
2023-05-12T05:32:11.838Z,32.55
2023-05-12T05:34:38.344Z,29.08
2023-05-12T05:37:05.094Z,29.20
2023-05-12T05:39:31.710Z,26.23
2023-05-12T05:41:58.336Z,31.77
2023-05-12T05:44:25.522Z,31.98
2023-05-12T05:46:52.160Z,28.75
2023-05-12T05:49:19.081Z,29.85
2023-05-12T05:51:45.597Z,33.77
2023-05-12T05:54:12.269Z,34.33
2023-05-12T05:56:38.908Z,32.83
2023-05-12T05:59:05.806Z,28.30
2023-05-12T06:01:33.009Z,33.35
2023-05-12T06:03:59.703Z,32.80
2023-05-12T06:06:26.263Z,29.10
2023-05-12T06:08:55.828Z,33.40
2023-05-12T06:11:22.317Z,29.83
2023-05-12T06:13:48.820Z,31.67
2023-05-12T06:16:15.385Z,32.03
2023-05-12T06:18:41.885Z,28.42
2023-05-12T06:21:08.463Z,30.17
2023-05-12T06:23:35.117Z,29.90
2023-05-12T06:26:01.669Z,30.33
2023-05-12T06:28:28.102Z,30.10
2023-05-12T06:30:54.545Z,34.35
2023-05-12T06:33:21.472Z,31.98
2023-05-12T06:35:48.386Z,32.42
2023-05-12T06:38:14.883Z,27.15
2023-05-12T06:40:41.361Z,31.67
2023-05-12T06:43:08.012Z,28.55
2023-05-12T06:45:34.500Z,31.38
2023-05-12T06:48:02.032Z,27.85
2023-05-12T06:50:28.611Z,28.08
2023-05-12T06:52:55.037Z,33.57
2023-05-12T06:55:22.732Z,30.55
2023-05-12T06:57:51.685Z,30.25
2023-05-12T07:00:18.566Z,34.88
2023-05-12T07:02:45.167Z,28.83
2023-05-12T07:05:12.924Z,26.43
2023-05-12T07:07:39.625Z,28.25
2023-05-12T07:10:07.518Z,28.15
2023-05-12T07:12:33.970Z,32.00
2023-05-12T07:15:00.805Z,27.60
2023-05-12T07:17:28.832Z,25.77
2023-05-12T07:19:55.343Z,30.02
2023-05-12T07:22:22.041Z,25.33
2023-05-12T07:24:48.587Z,26.90
2023-05-12T07:27:15.230Z,29.50
2023-05-12T07:29:41.791Z,26.47
2023-05-12T07:32:08.232Z,29.95
2023-05-12T07:34:34.735Z,22.60
2023-05-12T07:37:02.488Z,24.40
2023-05-12T07:39:31.008Z,25.92
2023-05-12T07:41:58.353Z,22.90
2023-05-12T07:44:26.264Z,23.55
2023-05-12T07:46:52.713Z,21.17
2023-05-12T07:49:19.250Z,26.27
2023-05-12T07:51:45.676Z,21.90
2023-05-12T07:54:12.250Z,22.50
2023-05-12T07:56:38.680Z,22.77
2023-05-12T07:59:05.483Z,22.13
2023-05-12T08:01:31.970Z,20.00
2023-05-12T08:03:58.805Z,19.02
2023-05-12T08:06:25.419Z,21.40
2023-05-12T08:08:51.933Z,19.73
2023-05-12T08:11:18.357Z,20.30
2023-05-12T08:13:44.830Z,19.48
2023-05-12T08:16:11.249Z,21.83
2023-05-12T08:18:38.732Z,20.23
2023-05-12T08:21:05.912Z,18.15
2023-05-12T08:23:32.458Z,17.48
2023-05-12T08:25:58.915Z,17.92
2023-05-12T08:28:25.338Z,18.40
2023-05-12T08:30:51.925Z,17.27
2023-05-12T08:33:18.483Z,19.02
2023-05-12T08:35:45.094Z,17.73
2023-05-12T08:38:11.662Z,18.92
2023-05-12T08:40:47.077Z,20.80
2023-05-12T08:43:24.179Z,18.90
2023-05-12T08:45:50.972Z,17.95
2023-05-12T08:48:19.898Z,15.63
2023-05-12T08:50:49.611Z,15.35
2023-05-12T08:53:18.797Z,15.90
2023-05-12T08:56:01.381Z,17.70
2023-05-12T08:58:40.988Z,16.50
2023-05-12T09:01:10.951Z,15.50
2023-05-12T09:03:37.534Z,15.40
2023-05-12T09:06:08.820Z,13.23
2023-05-12T09:08:36.647Z,15.00
2023-05-12T09:11:03.854Z,15.15
2023-05-12T09:13:43.321Z,13.88
2023-05-12T09:16:12.977Z,12.68
2023-05-12T09:18:58.582Z,12.32
2023-05-12T09:21:26.375Z,11.93
2023-05-12T09:24:05.882Z,10.93
2023-05-12T09:26:44.982Z,11.13
2023-05-12T09:29:20.740Z,11.63
2023-05-12T09:31:57.676Z,9.55
2023-05-12T09:34:30.452Z,7.63
2023-05-12T09:37:02.471Z,6.85
2023-05-12T09:39:29.109Z,8.73
2023-05-12T09:41:58.838Z,10.00
2023-05-12T09:44:26.308Z,8.43
2023-05-12T09:46:52.915Z,9.13
2023-05-12T09:49:27.127Z,7.63
2023-05-12T09:51:56.326Z,10.15
2023-05-12T09:54:26.425Z,8.63
2023-05-12T09:56:57.608Z,8.43
2023-05-12T09:59:27.054Z,7.90
2023-05-12T10:01:58.624Z,7.65
2023-05-12T10:04:25.766Z,7.47
2023-05-12T10:06:52.902Z,7.03
2023-05-12T10:09:34.165Z,8.60
2023-05-12T10:12:03.051Z,7.87
2023-05-12T10:14:29.998Z,7.93
2023-05-12T10:16:57.808Z,9.30
2023-05-12T10:19:25.828Z,8.23
2023-05-12T10:21:53.417Z,7.15
2023-05-12T10:24:21.071Z,8.73
2023-05-12T10:26:47.517Z,6.03
2023-05-12T10:29:14.666Z,6.85
2023-05-12T10:31:43.785Z,5.32
2023-05-12T10:34:17.529Z,4.30
2023-05-12T10:36:47.431Z,5.87
2023-05-12T10:39:15.531Z,7.28
2023-05-12T10:41:42.677Z,6.07
2023-05-12T10:44:12.181Z,4.63
2023-05-12T10:46:38.811Z,4.85
2023-05-12T10:49:10.520Z,4.90
2023-05-12T10:51:43.257Z,8.18
2023-05-12T10:54:11.550Z,4.80
2023-05-12T10:56:41.134Z,5.40
2023-05-12T10:59:24.312Z,6.43
2023-05-12T11:02:02.025Z,4.83
2023-05-12T11:04:37.577Z,4.97
2023-05-12T11:07:06.122Z,5.90
2023-05-12T11:09:36.380Z,4.20
2023-05-12T11:12:08.543Z,5.63
2023-05-12T11:14:38.634Z,5.67
2023-05-12T11:17:05.549Z,4.65
2023-05-12T11:19:32.752Z,4.57
2023-05-12T11:22:05.945Z,4.53
2023-05-12T11:24:32.617Z,7.28
2023-05-12T11:26:59.077Z,3.80
2023-05-12T11:29:25.664Z,3.75
2023-05-12T11:31:53.109Z,4.45
2023-05-12T11:34:23.952Z,3.25
2023-05-12T11:36:55.946Z,6.13
2023-05-12T11:39:27.974Z,5.27
2023-05-12T11:41:59.489Z,3.33
2023-05-12T11:44:29.234Z,4.22
2023-05-12T11:47:10.930Z,4.78
2023-05-12T11:49:49.583Z,3.90
2023-05-12T11:52:17.177Z,4.67
2023-05-12T11:54:57.730Z,5.03
2023-05-12T11:57:38.383Z,3.72
2023-05-12T12:00:09.738Z,3.92
2023-05-12T12:02:37.496Z,6.40
2023-05-12T12:05:05.870Z,3.90
2023-05-12T12:07:35.817Z,4.65
2023-05-12T12:10:16.519Z,5.88
2023-05-12T12:12:43.743Z,5.88
2023-05-12T12:15:11.160Z,3.97
2023-05-12T12:17:38.261Z,4.80
2023-05-12T12:20:05.518Z,5.22
2023-05-12T12:22:34.393Z,3.30
2023-05-12T12:25:01.616Z,5.53
2023-05-12T12:27:28.108Z,4.38
2023-05-12T12:29:54.613Z,3.00
2023-05-12T12:32:21.084Z,3.63
2023-05-12T12:34:49.076Z,7.72
2023-05-12T12:37:16.157Z,4.75
2023-05-12T12:39:42.814Z,4.03
2023-05-12T12:42:09.386Z,3.83
2023-05-12T12:44:35.830Z,4.43
2023-05-12T12:47:02.354Z,5.10
2023-05-12T12:49:28.929Z,3.03
2023-05-12T12:51:55.930Z,6.22
2023-05-12T12:54:22.711Z,4.77
2023-05-12T12:56:49.187Z,4.53
2023-05-12T12:59:15.680Z,4.65
2023-05-12T13:01:42.929Z,4.95
2023-05-12T13:04:09.491Z,4.50
2023-05-12T13:06:36.130Z,3.90
2023-05-12T13:09:04.021Z,4.32
2023-05-12T13:11:30.669Z,3.95
2023-05-12T13:13:57.180Z,3.63
2023-05-12T13:16:23.651Z,7.32
2023-05-12T13:18:50.156Z,5.93
2023-05-12T13:21:18.706Z,4.97
2023-05-12T13:23:45.379Z,7.70
2023-05-12T13:26:11.812Z,6.18
2023-05-12T13:28:38.465Z,7.43
2023-05-12T13:31:06.091Z,6.87
2023-05-12T13:33:32.775Z,5.07
2023-05-12T13:35:59.395Z,5.18
2023-05-12T13:38:26.359Z,6.47
2023-05-12T13:40:53.593Z,6.35
2023-05-12T13:43:20.069Z,7.87
2023-05-12T13:45:46.716Z,6.05
2023-05-12T13:48:13.262Z,5.53
2023-05-12T13:50:39.760Z,5.50
2023-05-12T13:53:06.634Z,4.20
2023-05-12T13:55:34.277Z,5.17
2023-05-12T13:58:00.705Z,5.93
2023-05-12T14:00:29.817Z,7.95
2023-05-12T14:02:57.778Z,5.72
2023-05-12T14:05:24.557Z,4.13
2023-05-12T14:07:51.285Z,5.47
2023-05-12T14:10:18.592Z,4.78
2023-05-12T14:12:45.414Z,4.85
2023-05-12T14:17:46.280Z,6.72
2023-05-12T14:20:12.870Z,4.30
2023-05-12T14:22:39.402Z,5.55
2023-05-12T14:25:06.320Z,6.85
2023-05-12T14:27:32.751Z,4.30
2023-05-12T14:29:59.374Z,9.70
2023-05-12T14:32:25.974Z,4.73
2023-05-12T14:34:52.505Z,5.85
2023-05-12T14:37:19.033Z,5.38
2023-05-12T14:39:45.706Z,5.22
2023-05-12T14:42:12.369Z,5.28
2023-05-12T14:44:39.106Z,5.00
2023-05-12T14:47:07.528Z,5.53
2023-05-12T14:49:35.564Z,5.15
2023-05-12T14:52:02.638Z,5.35
2023-05-12T14:54:29.229Z,4.07
2023-05-12T14:56:56.506Z,6.33
2023-05-12T14:59:23.096Z,4.85
2023-05-12T15:01:49.593Z,7.53
2023-05-12T15:04:16.362Z,5.90
2023-05-12T15:06:42.939Z,4.53
2023-05-12T15:09:09.681Z,3.23
2023-05-12T15:11:36.963Z,4.00
2023-05-12T15:14:04.760Z,5.43
2023-05-12T15:16:31.463Z,5.45
2023-05-12T15:18:57.971Z,4.97
2023-05-12T15:21:24.477Z,4.97
2023-05-12T15:23:50.919Z,4.93
2023-05-12T15:26:31.927Z,5.05
2023-05-12T15:28:59.895Z,4.13
2023-05-12T15:31:28.733Z,5.13
2023-05-12T15:33:56.657Z,5.07
2023-05-12T15:36:23.179Z,4.07
2023-05-12T15:38:49.707Z,4.65
2023-05-12T15:41:16.420Z,4.90
2023-05-12T15:43:42.938Z,5.07
2023-05-12T15:46:10.893Z,6.37
2023-05-12T15:48:37.764Z,7.65
2023-05-12T15:51:04.528Z,5.10
2023-05-12T15:53:31.504Z,5.25
2023-05-12T15:56:02.226Z,7.50
2023-05-12T15:58:29.379Z,6.30
2023-05-12T16:00:56.182Z,5.88
2023-05-12T16:03:23.787Z,5.63
2023-05-12T16:05:51.151Z,6.88
2023-05-12T16:08:17.978Z,7.65
2023-05-12T16:10:44.682Z,6.93
2023-05-12T16:13:11.200Z,6.95
2023-05-12T16:15:37.676Z,5.18
2023-05-12T16:18:06.369Z,4.35
2023-05-12T16:20:34.189Z,5.18
2023-05-12T16:23:00.667Z,6.30
2023-05-12T16:25:27.263Z,6.03
2023-05-12T16:27:53.863Z,7.20
2023-05-12T16:30:20.996Z,8.68
2023-05-12T16:32:47.688Z,7.40
2023-05-12T16:35:14.481Z,9.40
2023-05-12T16:37:41.369Z,9.90
2023-05-12T16:40:09.415Z,7.30
2023-05-12T16:42:36.607Z,7.32
2023-05-12T16:45:03.509Z,7.60
2023-05-12T16:47:30.073Z,5.97
2023-05-12T16:49:58.193Z,6.55
2023-05-12T16:52:25.582Z,5.35
2023-05-12T16:54:53.262Z,7.88
2023-05-12T16:57:20.243Z,7.53
2023-05-12T16:59:48.378Z,7.53
2023-05-12T17:02:15.264Z,8.70
2023-05-12T17:04:42.014Z,9.27
2023-05-12T17:07:09.139Z,7.35
2023-05-12T17:09:35.711Z,6.18
2023-05-12T17:12:02.795Z,6.77
2023-05-12T17:14:29.224Z,8.55
2023-05-12T17:16:55.688Z,6.35
2023-05-12T17:19:22.337Z,8.25
2023-05-12T17:21:48.913Z,5.82
2023-05-12T17:24:15.545Z,7.90
2023-05-12T17:26:42.207Z,6.40
2023-05-12T17:29:08.714Z,6.70
2023-05-12T17:31:36.654Z,6.72
2023-05-12T17:34:03.258Z,5.70
2023-05-12T17:36:30.082Z,6.57
2023-05-12T17:38:56.844Z,10.52
2023-05-12T17:41:23.305Z,7.05
2023-05-12T17:43:49.861Z,6.25
2023-05-12T17:46:16.694Z,8.80
2023-05-12T17:48:43.263Z,6.93
2023-05-12T17:51:09.701Z,7.45
2023-05-12T17:53:36.141Z,11.00
2023-05-12T17:56:03.126Z,6.47
2023-05-12T17:58:29.639Z,7.22
2023-05-12T18:00:56.683Z,6.43
2023-05-12T18:03:23.817Z,7.10
2023-05-12T18:05:52.269Z,7.10
2023-05-12T18:08:19.355Z,9.07
2023-05-12T18:10:46.707Z,8.75
2023-05-12T18:13:14.611Z,10.63
2023-05-12T18:15:41.893Z,7.72
2023-05-12T18:18:08.989Z,4.80
2023-05-12T18:20:35.651Z,8.55
2023-05-12T18:23:02.143Z,5.95
2023-05-12T18:25:28.620Z,3.80
2023-05-12T18:27:55.057Z,3.88
2023-05-12T18:30:21.501Z,4.53
2023-05-12T18:32:48.031Z,5.80
2023-05-12T18:35:14.545Z,4.32
2023-05-12T18:37:42.155Z,3.57
2023-05-12T18:40:09.020Z,6.75
2023-05-12T18:42:36.046Z,5.97
2023-05-12T18:45:02.850Z,6.88
2023-05-12T18:47:29.262Z,4.63
2023-05-12T18:49:55.762Z,7.73
2023-05-12T18:52:22.206Z,8.10
2023-05-12T18:54:49.808Z,4.68
2023-05-12T18:57:16.953Z,3.95
2023-05-12T18:59:43.519Z,7.65
2023-05-12T19:02:10.416Z,5.77
2023-05-12T19:04:37.199Z,4.57
2023-05-12T19:07:04.273Z,6.75
2023-05-12T19:09:30.762Z,8.00
2023-05-12T19:11:57.248Z,5.88
2023-05-12T19:14:23.828Z,3.43
2023-05-12T19:16:50.338Z,4.70
2023-05-12T19:19:17.336Z,6.55
2023-05-12T19:21:43.920Z,5.88
2023-05-12T19:24:10.748Z,5.00
2023-05-12T19:26:37.432Z,6.73
2023-05-12T19:29:04.617Z,6.30
2023-05-12T19:31:31.378Z,5.65
2023-05-12T19:33:58.011Z,6.65
2023-05-12T19:36:24.668Z,5.00
2023-05-12T19:38:51.332Z,6.97
2023-05-12T19:41:17.863Z,9.27
2023-05-12T19:43:44.352Z,7.75
2023-05-12T19:46:13.958Z,7.25
2023-05-12T19:48:40.517Z,6.65
2023-05-12T19:51:07.889Z,6.50
2023-05-12T19:53:34.334Z,7.00
2023-05-12T19:56:01.055Z,7.63
2023-05-12T19:58:30.676Z,6.60
2023-05-12T20:00:58.301Z,9.63
2023-05-12T20:03:24.931Z,9.37
2023-05-12T20:05:51.544Z,7.75
2023-05-12T20:08:18.092Z,8.35
2023-05-12T20:10:44.556Z,7.32
2023-05-12T20:13:11.714Z,7.35
2023-05-12T20:15:39.924Z,7.63
2023-05-12T20:18:06.455Z,8.77
2023-05-12T20:20:33.042Z,8.98
2023-05-12T20:22:59.558Z,9.52
2023-05-12T20:25:29.793Z,9.85
2023-05-12T20:27:56.309Z,8.20
2023-05-12T20:30:22.896Z,10.00
2023-05-12T20:32:51.432Z,9.50
2023-05-12T20:35:17.975Z,11.13
2023-05-12T20:37:44.518Z,11.57
2023-05-12T20:40:11.295Z,8.53
2023-05-12T20:42:37.807Z,7.80
2023-05-12T20:45:04.674Z,8.38
2023-05-12T20:47:34.223Z,9.05
2023-05-12T20:50:05.465Z,9.75
2023-05-12T20:52:33.616Z,8.60
2023-05-12T20:55:02.096Z,10.25
2023-05-12T20:57:28.878Z,9.98
2023-05-12T20:59:58.211Z,10.25
2023-05-12T21:02:25.660Z,8.23
2023-05-12T21:04:52.471Z,9.63
2023-05-12T21:07:19.795Z,9.82
2023-05-12T21:09:47.793Z,10.68
2023-05-12T21:12:14.367Z,10.07
2023-05-12T21:14:42.562Z,9.85
2023-05-12T21:17:09.831Z,12.43
2023-05-12T21:19:38.073Z,9.30
2023-05-12T21:22:06.731Z,9.15
2023-05-12T21:24:33.690Z,12.50
2023-05-12T21:27:04.301Z,10.93
2023-05-12T21:29:31.795Z,8.63
2023-05-12T21:31:58.340Z,9.60
2023-05-12T21:34:25.777Z,9.65
2023-05-12T21:36:52.308Z,10.65
2023-05-12T21:39:18.733Z,10.13
2023-05-12T21:41:45.191Z,9.43
2023-05-12T21:44:11.739Z,10.20
2023-05-12T21:46:38.427Z,10.55
2023-05-12T21:49:05.038Z,8.80
2023-05-12T21:51:33.175Z,8.85
2023-05-12T21:54:00.211Z,10.53
2023-05-12T21:56:26.820Z,9.00
2023-05-12T21:58:53.292Z,11.32
2023-05-12T22:01:22.959Z,8.70
2023-05-12T22:03:49.897Z,9.52
2023-05-12T22:06:16.662Z,9.73
2023-05-12T22:08:43.398Z,9.18
2023-05-12T22:11:09.996Z,10.65
2023-05-12T22:13:36.560Z,10.70
2023-05-12T22:16:03.991Z,10.52
2023-05-12T22:18:30.714Z,8.73
2023-05-12T22:20:57.199Z,9.07
2023-05-12T22:23:27.656Z,9.60
2023-05-12T22:25:54.265Z,8.48
2023-05-12T22:28:20.831Z,9.45
2023-05-12T22:30:47.306Z,8.03
2023-05-12T22:33:13.738Z,7.88
2023-05-12T22:35:40.267Z,8.68
2023-05-12T22:38:06.733Z,7.97
2023-05-12T22:40:33.783Z,12.65
2023-05-12T22:43:00.316Z,7.80
2023-05-12T22:45:27.615Z,10.70
2023-05-12T22:47:54.485Z,8.65
2023-05-12T22:50:21.632Z,9.30
2023-05-12T22:52:48.249Z,6.38
2023-05-12T22:55:14.678Z,11.00
2023-05-12T22:57:43.687Z,6.63
2023-05-12T23:00:10.609Z,8.90
2023-05-12T23:02:37.169Z,8.70
2023-05-12T23:05:04.212Z,6.57
2023-05-12T23:07:31.086Z,6.53
2023-05-12T23:09:57.634Z,10.40
2023-05-12T23:12:24.111Z,7.60
2023-05-12T23:14:50.699Z,7.07
2023-05-12T23:17:17.199Z,7.35
2023-05-12T23:19:43.662Z,7.57
2023-05-12T23:22:12.428Z,10.27
2023-05-12T23:24:38.846Z,10.85
2023-05-12T23:27:05.740Z,8.50
2023-05-12T23:29:34.108Z,11.70
2023-05-12T23:32:00.712Z,8.43
2023-05-12T23:34:27.271Z,8.45
2023-05-12T23:36:53.738Z,7.32
2023-05-12T23:39:20.341Z,12.55
2023-05-12T23:41:46.822Z,7.43
2023-05-12T23:44:13.467Z,7.47
2023-05-12T23:46:40.104Z,7.53
2023-05-12T23:49:06.713Z,9.23
2023-05-12T23:51:34.286Z,9.77
2023-05-12T23:54:00.754Z,8.38
2023-05-12T23:56:27.186Z,7.80
2023-05-12T23:58:53.637Z,9.18
